Terminal Aerodrome Forecast
Issued by NWS Springfield, MO

Home | Current Version | Previous Version | Text Only | Print | Product List | Glossary On
Versions: 1 2 3 4 5 6 7 8 9 10 11 12
634
FTUS43 KSGF 241120
TAFSGF
TAF
KSGF 241120Z 2412/2512 13005KT P6SM SKC
     FM241600 16008KT P6SM FEW200=

USA.gov is the U.S. government's official web portal to all federal, state and local government web resources and services.